Terminal Aerodrome Forecast
Issued by NWS

Home | Current Version | Previous Version | Text Only | Print | Product List | Glossary On
Versions: 1 2 3 4 5 6 7 8 9 10 11 12 13 14 15 16 17
000
FTUS45 KSLC 231132
TAFBCE
TAF
KBCE 231132Z 2312/2412 28006KT P6SM SKC
     FM231900 31012G19KT 6SM FU SCT090
     FM240300 30008KT 6SM FU FEW090=

USA.gov is the U.S. government's official web portal to all federal, state and local government web resources and services.